sensor_id;sensor_type;location;lat;lon;timestamp;P1;durP1;ratioP1;P2;durP2;ratioP2
73850;SDS011;62190;51.548;5.688;2022-09-13T00:00:54;17.57;;;13.10;;
73850;SDS011;62190;51.548;5.688;2022-09-13T00:03:22;18.62;;;13.32;;
73850;SDS011;62190;51.548;5.688;2022-09-13T00:05:50;21.57;;;14.60;;
73850;SDS011;62190;51.548;5.688;2022-09-13T00:08:19;17.15;;;13.13;;
73850;SDS011;62190;51.548;5.688;2022-09-13T00:10:46;20.08;;;13.90;;
73850;SDS011;62190;51.548;5.688;2022-09-13T00:13:15;17.62;;;13.93;;
73850;SDS011;62190;51.548;5.688;2022-09-13T00:15:45;18.30;;;13.13;;
73850;SDS011;62190;51.548;5.688;2022-09-13T00:18:15;16.80;;;13.60;;
73850;SDS011;62190;51.548;5.688;2022-09-13T00:20:44;19.37;;;14.45;;
73850;SDS011;62190;51.548;5.688;2022-09-13T00:23:13;16.15;;;14.18;;
73850;SDS011;62190;51.548;5.688;2022-09-13T00:25:42;17.65;;;12.73;;
73850;SDS011;62190;51.548;5.688;2022-09-13T00:28:09;18.57;;;12.78;;
73850;SDS011;62190;51.548;5.688;2022-09-13T00:30:37;16.37;;;13.05;;
73850;SDS011;62190;51.548;5.688;2022-09-13T00:33:05;15.13;;;12.37;;
73850;SDS011;62190;51.548;5.688;2022-09-13T00:35:32;16.87;;;12.58;;
73850;SDS011;62190;51.548;5.688;2022-09-13T00:38:00;16.00;;;12.70;;
73850;SDS011;62190;51.548;5.688;2022-09-13T00:40:27;16.25;;;12.58;;
73850;SDS011;62190;51.548;5.688;2022-09-13T00:42:55;15.65;;;12.55;;
73850;SDS011;62190;51.548;5.688;2022-09-13T00:45:22;15.95;;;11.93;;
73850;SDS011;62190;51.548;5.688;2022-09-13T00:48:03;16.65;;;13.05;;
73850;SDS011;62190;51.548;5.688;2022-09-13T00:50:36;19.77;;;13.78;;
73850;SDS011;62190;51.548;5.688;2022-09-13T00:53:05;16.67;;;13.62;;
73850;SDS011;62190;51.548;5.688;2022-09-13T00:55:46;17.57;;;13.55;;
73850;SDS011;62190;51.548;5.688;2022-09-13T01:01:00;16.00;;;12.05;;
73850;SDS011;62190;51.548;5.688;2022-09-13T01:03:29;15.70;;;11.50;;
73850;SDS011;62190;51.548;5.688;2022-09-13T01:06:04;14.60;;;10.70;;
73850;SDS011;62190;51.548;5.688;2022-09-13T01:08:29;15.93;;;10.95;;
73850;SDS011;62190;51.548;5.688;2022-09-13T01:10:58;14.83;;;11.10;;
73850;SDS011;62190;51.548;5.688;2022-09-13T01:13:30;16.93;;;11.60;;
73850;SDS011;62190;51.548;5.688;2022-09-13T01:15:59;13.70;;;10.85;;
73850;SDS011;62190;51.548;5.688;2022-09-13T01:18:26;16.00;;;12.33;;
73850;SDS011;62190;51.548;5.688;2022-09-13T01:29:08;13.75;;;9.53;;
73850;SDS011;62190;51.548;5.688;2022-09-13T01:31:36;12.10;;;8.95;;
73850;SDS011;62190;51.548;5.688;2022-09-13T01:34:14;13.25;;;9.15;;
73850;SDS011;62190;51.548;5.688;2022-09-13T01:47:49;12.28;;;8.33;;
73850;SDS011;62190;51.548;5.688;2022-09-13T01:50:22;10.95;;;8.55;;
73850;SDS011;62190;51.548;5.688;2022-09-13T01:52:53;12.93;;;8.95;;
73850;SDS011;62190;51.548;5.688;2022-09-13T01:58:15;12.03;;;8.45;;
73850;SDS011;62190;51.548;5.688;2022-09-13T02:00:43;10.78;;;8.18;;
73850;SDS011;62190;51.548;5.688;2022-09-13T02:03:16;9.58;;;7.50;;
73850;SDS011;62190;51.548;5.688;2022-09-13T02:05:44;10.30;;;7.30;;
73850;SDS011;62190;51.548;5.688;2022-09-13T02:08:31;11.18;;;8.40;;
73850;SDS011;62190;51.548;5.688;2022-09-13T02:11:15;10.82;;;7.20;;
73850;SDS011;62190;51.548;5.688;2022-09-13T02:14:06;9.35;;;7.42;;
73850;SDS011;62190;51.548;5.688;2022-09-13T02:19:47;9.43;;;7.40;;
73850;SDS011;62190;51.548;5.688;2022-09-13T02:22:32;9.25;;;6.90;;
73850;SDS011;62190;51.548;5.688;2022-09-13T02:25:09;11.08;;;7.30;;
73850;SDS011;62190;51.548;5.688;2022-09-13T02:27:35;10.75;;;7.72;;
73850;SDS011;62190;51.548;5.688;2022-09-13T02:30:05;10.50;;;7.83;;
73850;SDS011;62190;51.548;5.688;2022-09-13T02:32:37;13.93;;;8.35;;
73850;SDS011;62190;51.548;5.688;2022-09-13T02:35:20;10.88;;;8.18;;
73850;SDS011;62190;51.548;5.688;2022-09-13T02:38:07;9.90;;;7.20;;
73850;SDS011;62190;51.548;5.688;2022-09-13T02:40:39;11.40;;;7.92;;
73850;SDS011;62190;51.548;5.688;2022-09-13T02:43:04;13.08;;;8.08;;
73850;SDS011;62190;51.548;5.688;2022-09-13T02:45:41;11.18;;;7.67;;
73850;SDS011;62190;51.548;5.688;2022-09-13T02:48:21;14.40;;;9.33;;
73850;SDS011;62190;51.548;5.688;2022-09-13T02:50:50;11.68;;;8.60;;
73850;SDS011;62190;51.548;5.688;2022-09-13T02:59:01;14.07;;;8.05;;
73850;SDS011;62190;51.548;5.688;2022-09-13T03:01:32;11.20;;;8.03;;
73850;SDS011;62190;51.548;5.688;2022-09-13T03:04:01;13.28;;;7.83;;
73850;SDS011;62190;51.548;5.688;2022-09-13T03:06:28;12.13;;;8.20;;
73850;SDS011;62190;51.548;5.688;2022-09-13T03:08:58;10.32;;;7.62;;
73850;SDS011;62190;51.548;5.688;2022-09-13T03:11:35;15.30;;;9.25;;
73850;SDS011;62190;51.548;5.688;2022-09-13T03:17:04;12.00;;;7.00;;
73850;SDS011;62190;51.548;5.688;2022-09-13T03:25:06;11.80;;;7.75;;
73850;SDS011;62190;51.548;5.688;2022-09-13T03:30:34;10.70;;;7.92;;
73850;SDS011;62190;51.548;5.688;2022-09-13T03:33:15;12.47;;;7.37;;
73850;SDS011;62190;51.548;5.688;2022-09-13T03:38:36;13.08;;;8.33;;
73850;SDS011;62190;51.548;5.688;2022-09-13T03:41:12;11.53;;;8.18;;
73850;SDS011;62190;51.548;5.688;2022-09-13T03:46:17;10.75;;;7.50;;
73850;SDS011;62190;51.548;5.688;2022-09-13T03:48:45;11.25;;;7.80;;
73850;SDS011;62190;51.548;5.688;2022-09-13T03:51:13;10.30;;;7.95;;
73850;SDS011;62190;51.548;5.688;2022-09-13T03:53:42;11.53;;;7.40;;
73850;SDS011;62190;51.548;5.688;2022-09-13T03:56:12;12.13;;;8.13;;
73850;SDS011;62190;51.548;5.688;2022-09-13T03:58:41;12.23;;;7.70;;
73850;SDS011;62190;51.548;5.688;2022-09-13T04:01:09;11.50;;;7.37;;
73850;SDS011;62190;51.548;5.688;2022-09-13T04:03:36;10.32;;;7.40;;
73850;SDS011;62190;51.548;5.688;2022-09-13T04:06:05;10.95;;;7.25;;
73850;SDS011;62190;51.548;5.688;2022-09-13T04:08:35;13.45;;;8.13;;
73850;SDS011;62190;51.548;5.688;2022-09-13T04:11:03;12.37;;;7.85;;
73850;SDS011;62190;51.548;5.688;2022-09-13T04:13:34;12.28;;;7.37;;
73850;SDS011;62190;51.548;5.688;2022-09-13T04:16:04;12.30;;;8.03;;
73850;SDS011;62190;51.548;5.688;2022-09-13T04:18:32;10.35;;;7.33;;
73850;SDS011;62190;51.548;5.688;2022-09-13T04:21:02;11.40;;;8.35;;
73850;SDS011;62190;51.548;5.688;2022-09-13T04:23:29;11.35;;;7.40;;
73850;SDS011;62190;51.548;5.688;2022-09-13T04:26:00;11.18;;;7.60;;
73850;SDS011;62190;51.548;5.688;2022-09-13T04:28:28;11.83;;;7.78;;
73850;SDS011;62190;51.548;5.688;2022-09-13T04:30:56;10.98;;;7.92;;
73850;SDS011;62190;51.548;5.688;2022-09-13T04:33:23;11.73;;;8.73;;
73850;SDS011;62190;51.548;5.688;2022-09-13T04:35:56;10.28;;;7.62;;
73850;SDS011;62190;51.548;5.688;2022-09-13T04:38:26;12.45;;;8.15;;
73850;SDS011;62190;51.548;5.688;2022-09-13T04:40:55;10.95;;;8.38;;
73850;SDS011;62190;51.548;5.688;2022-09-13T04:43:22;13.50;;;9.45;;
73850;SDS011;62190;51.548;5.688;2022-09-13T04:45:50;14.95;;;9.20;;
73850;SDS011;62190;51.548;5.688;2022-09-13T04:48:18;13.75;;;9.33;;
73850;SDS011;62190;51.548;5.688;2022-09-13T04:50:47;16.15;;;9.30;;
73850;SDS011;62190;51.548;5.688;2022-09-13T04:53:14;16.27;;;9.70;;
73850;SDS011;62190;51.548;5.688;2022-09-13T04:55:42;12.47;;;9.93;;
73850;SDS011;62190;51.548;5.688;2022-09-13T04:58:11;13.18;;;9.88;;
73850;SDS011;62190;51.548;5.688;2022-09-13T05:00:38;14.35;;;9.75;;
73850;SDS011;62190;51.548;5.688;2022-09-13T05:03:08;17.40;;;9.55;;
73850;SDS011;62190;51.548;5.688;2022-09-13T05:05:34;15.65;;;10.08;;
73850;SDS011;62190;51.548;5.688;2022-09-13T05:08:03;13.20;;;9.38;;
73850;SDS011;62190;51.548;5.688;2022-09-13T05:10:30;14.23;;;10.05;;
73850;SDS011;62190;51.548;5.688;2022-09-13T05:12:58;16.57;;;9.83;;
73850;SDS011;62190;51.548;5.688;2022-09-13T05:15:26;16.45;;;10.23;;
73850;SDS011;62190;51.548;5.688;2022-09-13T05:17:54;16.55;;;10.18;;
73850;SDS011;62190;51.548;5.688;2022-09-13T05:20:23;11.75;;;8.20;;
73850;SDS011;62190;51.548;5.688;2022-09-13T05:22:53;13.83;;;9.40;;
73850;SDS011;62190;51.548;5.688;2022-09-13T05:25:21;12.95;;;9.45;;
73850;SDS011;62190;51.548;5.688;2022-09-13T05:27:48;16.20;;;9.68;;
73850;SDS011;62190;51.548;5.688;2022-09-13T05:30:15;12.23;;;9.35;;
73850;SDS011;62190;51.548;5.688;2022-09-13T05:32:44;11.22;;;8.60;;
73850;SDS011;62190;51.548;5.688;2022-09-13T05:35:11;12.55;;;8.93;;
73850;SDS011;62190;51.548;5.688;2022-09-13T05:37:39;14.10;;;9.15;;
73850;SDS011;62190;51.548;5.688;2022-09-13T05:40:06;12.73;;;9.38;;
73850;SDS011;62190;51.548;5.688;2022-09-13T05:42:34;14.58;;;9.60;;
73850;SDS011;62190;51.548;5.688;2022-09-13T05:45:01;14.78;;;9.53;;
73850;SDS011;62190;51.548;5.688;2022-09-13T05:47:32;11.93;;;9.13;;
73850;SDS011;62190;51.548;5.688;2022-09-13T05:49:59;12.10;;;9.88;;
73850;SDS011;62190;51.548;5.688;2022-09-13T05:52:27;14.20;;;8.95;;
73850;SDS011;62190;51.548;5.688;2022-09-13T05:54:54;14.45;;;9.45;;
73850;SDS011;62190;51.548;5.688;2022-09-13T05:57:21;17.50;;;8.55;;
73850;SDS011;62190;51.548;5.688;2022-09-13T05:59:48;14.75;;;8.68;;
73850;SDS011;62190;51.548;5.688;2022-09-13T06:02:16;11.18;;;7.70;;
73850;SDS011;62190;51.548;5.688;2022-09-13T06:04:43;11.48;;;8.80;;
73850;SDS011;62190;51.548;5.688;2022-09-13T06:07:11;12.65;;;9.18;;
73850;SDS011;62190;51.548;5.688;2022-09-13T06:09:38;13.83;;;8.48;;
73850;SDS011;62190;51.548;5.688;2022-09-13T06:12:07;12.70;;;9.23;;
73850;SDS011;62190;51.548;5.688;2022-09-13T06:14:34;12.00;;;8.80;;
73850;SDS011;62190;51.548;5.688;2022-09-13T06:17:03;13.93;;;9.13;;
73850;SDS011;62190;51.548;5.688;2022-09-13T06:19:31;12.30;;;7.92;;
73850;SDS011;62190;51.548;5.688;2022-09-13T06:21:59;12.35;;;8.73;;
73850;SDS011;62190;51.548;5.688;2022-09-13T06:24:26;10.48;;;7.95;;
73850;SDS011;62190;51.548;5.688;2022-09-13T06:26:53;11.43;;;7.72;;
73850;SDS011;62190;51.548;5.688;2022-09-13T06:29:21;11.15;;;7.10;;
73850;SDS011;62190;51.548;5.688;2022-09-13T06:31:48;9.95;;;7.15;;
73850;SDS011;62190;51.548;5.688;2022-09-13T06:34:15;13.72;;;7.05;;
73850;SDS011;62190;51.548;5.688;2022-09-13T06:36:43;10.80;;;8.10;;
73850;SDS011;62190;51.548;5.688;2022-09-13T06:39:10;12.50;;;9.15;;
73850;SDS011;62190;51.548;5.688;2022-09-13T06:41:38;14.13;;;9.85;;
73850;SDS011;62190;51.548;5.688;2022-09-13T06:44:05;12.40;;;8.73;;
73850;SDS011;62190;51.548;5.688;2022-09-13T06:46:33;10.08;;;8.08;;
73850;SDS011;62190;51.548;5.688;2022-09-13T06:49:02;15.45;;;10.10;;
73850;SDS011;62190;51.548;5.688;2022-09-13T06:51:31;13.18;;;9.15;;
73850;SDS011;62190;51.548;5.688;2022-09-13T06:53:59;12.85;;;8.95;;
73850;SDS011;62190;51.548;5.688;2022-09-13T06:56:34;13.78;;;9.73;;
73850;SDS011;62190;51.548;5.688;2022-09-13T06:58:59;13.65;;;10.90;;
73850;SDS011;62190;51.548;5.688;2022-09-13T07:04:10;11.88;;;9.03;;
73850;SDS011;62190;51.548;5.688;2022-09-13T07:06:35;11.18;;;8.60;;
73850;SDS011;62190;51.548;5.688;2022-09-13T07:11:44;11.93;;;10.00;;
73850;SDS011;62190;51.548;5.688;2022-09-13T07:14:13;13.05;;;9.30;;
73850;SDS011;62190;51.548;5.688;2022-09-13T07:16:42;13.98;;;9.73;;
73850;SDS011;62190;51.548;5.688;2022-09-13T07:19:13;17.40;;;10.13;;
73850;SDS011;62190;51.548;5.688;2022-09-13T07:21:42;11.63;;;9.83;;
73850;SDS011;62190;51.548;5.688;2022-09-13T07:24:13;11.57;;;9.68;;
73850;SDS011;62190;51.548;5.688;2022-09-13T07:26:41;14.55;;;11.25;;
73850;SDS011;62190;51.548;5.688;2022-09-13T07:29:10;12.00;;;10.18;;
73850;SDS011;62190;51.548;5.688;2022-09-13T07:31:46;15.72;;;10.70;;
73850;SDS011;62190;51.548;5.688;2022-09-13T07:34:13;13.80;;;12.13;;
73850;SDS011;62190;51.548;5.688;2022-09-13T07:36:42;13.70;;;11.80;;
73850;SDS011;62190;51.548;5.688;2022-09-13T07:39:11;16.52;;;12.43;;
73850;SDS011;62190;51.548;5.688;2022-09-13T07:41:41;15.40;;;11.65;;
73850;SDS011;62190;51.548;5.688;2022-09-13T07:44:12;15.13;;;11.55;;
73850;SDS011;62190;51.548;5.688;2022-09-13T07:46:39;15.72;;;11.73;;
73850;SDS011;62190;51.548;5.688;2022-09-13T07:49:09;19.20;;;12.93;;
73850;SDS011;62190;51.548;5.688;2022-09-13T07:51:38;14.98;;;13.38;;
73850;SDS011;62190;51.548;5.688;2022-09-13T07:54:12;17.23;;;13.85;;
73850;SDS011;62190;51.548;5.688;2022-09-13T07:56:41;20.37;;;15.50;;
73850;SDS011;62190;51.548;5.688;2022-09-13T07:59:13;20.60;;;15.70;;
73850;SDS011;62190;51.548;5.688;2022-09-13T08:01:41;19.67;;;15.60;;
73850;SDS011;62190;51.548;5.688;2022-09-13T08:04:15;18.42;;;15.13;;
73850;SDS011;62190;51.548;5.688;2022-09-13T08:06:42;22.80;;;17.62;;
73850;SDS011;62190;51.548;5.688;2022-09-13T08:09:11;21.20;;;17.98;;
73850;SDS011;62190;51.548;5.688;2022-09-13T08:11:41;22.85;;;17.17;;
73850;SDS011;62190;51.548;5.688;2022-09-13T08:14:11;20.77;;;16.87;;
73850;SDS011;62190;51.548;5.688;2022-09-13T08:16:42;24.87;;;17.40;;
73850;SDS011;62190;51.548;5.688;2022-09-13T08:19:10;20.68;;;15.80;;
73850;SDS011;62190;51.548;5.688;2022-09-13T08:21:39;20.37;;;15.32;;
73850;SDS011;62190;51.548;5.688;2022-09-13T08:24:07;21.90;;;15.05;;
73850;SDS011;62190;51.548;5.688;2022-09-13T08:26:40;22.13;;;16.52;;
73850;SDS011;62190;51.548;5.688;2022-09-13T08:29:10;20.43;;;15.25;;
73850;SDS011;62190;51.548;5.688;2022-09-13T08:31:37;21.00;;;15.53;;
73850;SDS011;62190;51.548;5.688;2022-09-13T08:34:06;17.57;;;15.00;;
73850;SDS011;62190;51.548;5.688;2022-09-13T08:36:36;22.80;;;17.15;;
73850;SDS011;62190;51.548;5.688;2022-09-13T08:39:05;21.65;;;18.05;;
73850;SDS011;62190;51.548;5.688;2022-09-13T08:41:38;22.90;;;18.12;;
73850;SDS011;62190;51.548;5.688;2022-09-13T08:46:46;21.90;;;17.87;;
73850;SDS011;62190;51.548;5.688;2022-09-13T08:49:20;27.07;;;18.52;;
73850;SDS011;62190;51.548;5.688;2022-09-13T08:51:50;23.22;;;17.75;;
73850;SDS011;62190;51.548;5.688;2022-09-13T08:54:20;24.55;;;18.75;;
73850;SDS011;62190;51.548;5.688;2022-09-13T08:56:51;22.42;;;18.50;;
73850;SDS011;62190;51.548;5.688;2022-09-13T09:05:21;23.80;;;19.80;;
73850;SDS011;62190;51.548;5.688;2022-09-13T09:08:05;23.12;;;17.32;;
73850;SDS011;62190;51.548;5.688;2022-09-13T09:10:40;23.87;;;17.82;;
73850;SDS011;62190;51.548;5.688;2022-09-13T09:16:04;23.87;;;17.17;;
73850;SDS011;62190;51.548;5.688;2022-09-13T09:18:36;27.52;;;18.42;;
73850;SDS011;62190;51.548;5.688;2022-09-13T09:21:05;23.02;;;17.32;;
73850;SDS011;62190;51.548;5.688;2022-09-13T09:23:36;25.27;;;18.10;;
73850;SDS011;62190;51.548;5.688;2022-09-13T09:28:52;21.35;;;17.20;;
73850;SDS011;62190;51.548;5.688;2022-09-13T09:36:55;25.30;;;16.70;;
73850;SDS011;62190;51.548;5.688;2022-09-13T09:39:24;26.23;;;17.37;;
73850;SDS011;62190;51.548;5.688;2022-09-13T09:41:54;20.35;;;15.25;;
73850;SDS011;62190;51.548;5.688;2022-09-13T09:44:24;21.17;;;15.30;;
73850;SDS011;62190;51.548;5.688;2022-09-13T09:46:56;21.30;;;16.27;;
73850;SDS011;62190;51.548;5.688;2022-09-13T09:49:32;18.98;;;15.65;;
73850;SDS011;62190;51.548;5.688;2022-09-13T09:52:38;21.48;;;16.37;;
73850;SDS011;62190;51.548;5.688;2022-09-13T09:55:28;23.40;;;17.15;;
73850;SDS011;62190;51.548;5.688;2022-09-13T09:58:12;21.60;;;16.50;;
73850;SDS011;62190;51.548;5.688;2022-09-13T10:00:53;22.32;;;17.42;;
73850;SDS011;62190;51.548;5.688;2022-09-13T10:03:25;21.52;;;16.95;;
73850;SDS011;62190;51.548;5.688;2022-09-13T10:06:07;21.73;;;16.65;;
73850;SDS011;62190;51.548;5.688;2022-09-13T10:08:46;19.75;;;14.63;;
73850;SDS011;62190;51.548;5.688;2022-09-13T10:11:07;21.00;;;15.20;;
73850;SDS011;62190;51.548;5.688;2022-09-13T10:13:37;24.35;;;15.45;;
73850;SDS011;62190;51.548;5.688;2022-09-13T10:16:22;19.75;;;16.90;;
73850;SDS011;62190;51.548;5.688;2022-09-13T10:18:37;19.42;;;15.25;;
73850;SDS011;62190;51.548;5.688;2022-09-13T10:23:47;15.43;;;12.82;;
73850;SDS011;62190;51.548;5.688;2022-09-13T10:29:00;20.30;;;13.20;;
73850;SDS011;62190;51.548;5.688;2022-09-13T10:31:31;17.92;;;13.30;;
73850;SDS011;62190;51.548;5.688;2022-09-13T10:34:18;15.45;;;12.10;;
73850;SDS011;62190;51.548;5.688;2022-09-13T10:39:22;15.05;;;11.03;;
73850;SDS011;62190;51.548;5.688;2022-09-13T10:41:58;17.32;;;10.88;;
73850;SDS011;62190;51.548;5.688;2022-09-13T10:44:37;12.73;;;9.45;;
73850;SDS011;62190;51.548;5.688;2022-09-13T10:47:04;17.25;;;11.70;;
73850;SDS011;62190;51.548;5.688;2022-09-13T10:49:56;12.65;;;10.68;;
73850;SDS011;62190;51.548;5.688;2022-09-13T10:52:34;14.07;;;11.48;;
73850;SDS011;62190;51.548;5.688;2022-09-13T10:57:52;12.05;;;9.55;;
73850;SDS011;62190;51.548;5.688;2022-09-13T11:06:15;17.25;;;10.93;;
73850;SDS011;62190;51.548;5.688;2022-09-13T11:09:01;13.85;;;10.30;;
73850;SDS011;62190;51.548;5.688;2022-09-13T11:11:40;14.53;;;9.55;;
73850;SDS011;62190;51.548;5.688;2022-09-13T11:14:24;13.25;;;8.83;;
73850;SDS011;62190;51.548;5.688;2022-09-13T11:17:55;13.40;;;8.40;;
73850;SDS011;62190;51.548;5.688;2022-09-13T11:19:41;9.43;;;7.55;;
73850;SDS011;62190;51.548;5.688;2022-09-13T11:31:23;11.33;;;8.90;;
73850;SDS011;62190;51.548;5.688;2022-09-13T11:33:54;9.35;;;7.03;;
73850;SDS011;62190;51.548;5.688;2022-09-13T11:36:21;12.35;;;8.28;;
73850;SDS011;62190;51.548;5.688;2022-09-13T11:58:18;8.23;;;6.60;;
73850;SDS011;62190;51.548;5.688;2022-09-13T12:00:58;8.70;;;6.62;;
73850;SDS011;62190;51.548;5.688;2022-09-13T12:03:30;11.20;;;7.30;;
73850;SDS011;62190;51.548;5.688;2022-09-13T12:06:05;12.82;;;7.62;;
73850;SDS011;62190;51.548;5.688;2022-09-13T12:08:48;7.95;;;6.15;;
73850;SDS011;62190;51.548;5.688;2022-09-13T12:11:19;11.70;;;7.45;;
73850;SDS011;62190;51.548;5.688;2022-09-13T12:13:49;7.08;;;5.80;;
73850;SDS011;62190;51.548;5.688;2022-09-13T12:16:22;5.30;;;4.80;;
73850;SDS011;62190;51.548;5.688;2022-09-13T12:18:58;6.62;;;3.75;;
73850;SDS011;62190;51.548;5.688;2022-09-13T12:21:31;10.48;;;6.28;;
73850;SDS011;62190;51.548;5.688;2022-09-13T12:32:21;7.80;;;5.33;;
73850;SDS011;62190;51.548;5.688;2022-09-13T12:34:57;10.50;;;5.65;;
73850;SDS011;62190;51.548;5.688;2022-09-13T12:37:57;8.83;;;6.47;;
73850;SDS011;62190;51.548;5.688;2022-09-13T12:43:46;8.55;;;5.10;;
73850;SDS011;62190;51.548;5.688;2022-09-13T12:49:24;8.13;;;5.25;;
73850;SDS011;62190;51.548;5.688;2022-09-13T12:54:45;7.20;;;6.28;;
73850;SDS011;62190;51.548;5.688;2022-09-13T13:00:08;11.10;;;5.55;;
73850;SDS011;62190;51.548;5.688;2022-09-13T13:05:36;7.90;;;4.95;;
73850;SDS011;62190;51.548;5.688;2022-09-13T13:08:05;6.22;;;4.62;;
73850;SDS011;62190;51.548;5.688;2022-09-13T13:10:35;6.60;;;4.65;;
73850;SDS011;62190;51.548;5.688;2022-09-13T13:13:09;6.53;;;4.47;;
73850;SDS011;62190;51.548;5.688;2022-09-13T13:18:20;4.80;;;4.17;;
73850;SDS011;62190;51.548;5.688;2022-09-13T13:23:27;7.25;;;4.85;;
73850;SDS011;62190;51.548;5.688;2022-09-13T13:29:02;13.65;;;9.88;;
73850;SDS011;62190;51.548;5.688;2022-09-13T13:36:44;13.90;;;10.23;;
73850;SDS011;62190;51.548;5.688;2022-09-13T13:41:53;11.95;;;7.85;;
73850;SDS011;62190;51.548;5.688;2022-09-13T14:05:27;7.95;;;5.90;;
73850;SDS011;62190;51.548;5.688;2022-09-13T14:16:04;8.88;;;7.17;;
73850;SDS011;62190;51.548;5.688;2022-09-13T14:19:06;15.13;;;7.33;;
73850;SDS011;62190;51.548;5.688;2022-09-13T14:21:43;8.53;;;6.50;;
73850;SDS011;62190;51.548;5.688;2022-09-13T14:24:17;11.93;;;7.28;;
73850;SDS011;62190;51.548;5.688;2022-09-13T14:26:56;10.95;;;8.23;;
73850;SDS011;62190;51.548;5.688;2022-09-13T14:29:22;12.43;;;8.45;;
73850;SDS011;62190;51.548;5.688;2022-09-13T14:32:00;9.65;;;8.33;;
73850;SDS011;62190;51.548;5.688;2022-09-13T14:34:32;9.78;;;7.15;;
73850;SDS011;62190;51.548;5.688;2022-09-13T14:37:03;9.28;;;6.17;;
73850;SDS011;62190;51.548;5.688;2022-09-13T14:39:31;10.13;;;6.80;;
73850;SDS011;62190;51.548;5.688;2022-09-13T14:42:06;9.23;;;7.20;;
73850;SDS011;62190;51.548;5.688;2022-09-13T14:44:31;9.65;;;6.47;;
73850;SDS011;62190;51.548;5.688;2022-09-13T14:47:11;8.73;;;6.40;;
73850;SDS011;62190;51.548;5.688;2022-09-13T14:49:35;10.20;;;6.40;;
73850;SDS011;62190;51.548;5.688;2022-09-13T14:52:06;6.08;;;4.75;;
73850;SDS011;62190;51.548;5.688;2022-09-13T14:54:39;8.68;;;5.87;;
73850;SDS011;62190;51.548;5.688;2022-09-13T14:57:16;6.92;;;4.83;;
73850;SDS011;62190;51.548;5.688;2022-09-13T14:59:43;6.30;;;4.83;;
73850;SDS011;62190;51.548;5.688;2022-09-13T15:02:17;6.50;;;4.28;;
73850;SDS011;62190;51.548;5.688;2022-09-13T15:07:27;7.70;;;4.87;;
73850;SDS011;62190;51.548;5.688;2022-09-13T15:09:56;5.72;;;4.53;;
73850;SDS011;62190;51.548;5.688;2022-09-13T15:12:27;5.85;;;3.77;;
73850;SDS011;62190;51.548;5.688;2022-09-13T15:17:50;8.13;;;3.90;;
73850;SDS011;62190;51.548;5.688;2022-09-13T15:20:26;5.42;;;3.35;;
73850;SDS011;62190;51.548;5.688;2022-09-13T15:23:14;7.08;;;3.58;;
73850;SDS011;62190;51.548;5.688;2022-09-13T15:25:47;5.78;;;3.85;;
73850;SDS011;62190;51.548;5.688;2022-09-13T15:28:19;6.58;;;3.90;;
73850;SDS011;62190;51.548;5.688;2022-09-13T15:30:48;6.50;;;3.80;;
73850;SDS011;62190;51.548;5.688;2022-09-13T15:33:19;4.50;;;2.90;;
73850;SDS011;62190;51.548;5.688;2022-09-13T15:35:46;5.53;;;3.45;;
73850;SDS011;62190;51.548;5.688;2022-09-13T15:40:46;4.85;;;3.15;;
73850;SDS011;62190;51.548;5.688;2022-09-13T15:43:15;7.97;;;3.05;;
73850;SDS011;62190;51.548;5.688;2022-09-13T15:45:42;2.87;;;2.60;;
73850;SDS011;62190;51.548;5.688;2022-09-13T15:48:15;3.02;;;2.35;;
73850;SDS011;62190;51.548;5.688;2022-09-13T15:51:06;4.20;;;2.60;;
73850;SDS011;62190;51.548;5.688;2022-09-13T15:53:36;4.65;;;3.08;;
73850;SDS011;62190;51.548;5.688;2022-09-13T15:56:04;3.90;;;2.70;;
73850;SDS011;62190;51.548;5.688;2022-09-13T15:58:33;6.58;;;2.50;;
73850;SDS011;62190;51.548;5.688;2022-09-13T16:01:01;6.37;;;2.65;;
73850;SDS011;62190;51.548;5.688;2022-09-13T16:03:29;4.87;;;2.22;;
73850;SDS011;62190;51.548;5.688;2022-09-13T16:05:58;4.33;;;2.55;;
73850;SDS011;62190;51.548;5.688;2022-09-13T16:08:25;5.67;;;2.67;;
73850;SDS011;62190;51.548;5.688;2022-09-13T16:10:52;4.15;;;2.10;;
73850;SDS011;62190;51.548;5.688;2022-09-13T16:13:19;3.05;;;2.55;;
73850;SDS011;62190;51.548;5.688;2022-09-13T16:15:47;5.47;;;3.40;;
73850;SDS011;62190;51.548;5.688;2022-09-13T16:18:15;3.15;;;2.55;;
73850;SDS011;62190;51.548;5.688;2022-09-13T16:20:42;7.00;;;3.10;;
73850;SDS011;62190;51.548;5.688;2022-09-13T16:23:10;6.97;;;3.40;;
73850;SDS011;62190;51.548;5.688;2022-09-13T16:25:37;3.95;;;3.55;;
73850;SDS011;62190;51.548;5.688;2022-09-13T16:28:05;6.22;;;3.65;;
73850;SDS011;62190;51.548;5.688;2022-09-13T16:30:33;6.47;;;3.50;;
73850;SDS011;62190;51.548;5.688;2022-09-13T16:33:01;4.97;;;3.92;;
73850;SDS011;62190;51.548;5.688;2022-09-13T16:35:29;6.28;;;4.42;;
73850;SDS011;62190;51.548;5.688;2022-09-13T16:37:57;11.10;;;4.05;;
73850;SDS011;62190;51.548;5.688;2022-09-13T16:40:25;4.47;;;3.33;;
73850;SDS011;62190;51.548;5.688;2022-09-13T16:42:52;4.80;;;3.55;;
73850;SDS011;62190;51.548;5.688;2022-09-13T16:45:20;5.55;;;2.92;;
73850;SDS011;62190;51.548;5.688;2022-09-13T16:47:48;4.87;;;3.27;;
73850;SDS011;62190;51.548;5.688;2022-09-13T16:50:15;6.53;;;3.30;;
73850;SDS011;62190;51.548;5.688;2022-09-13T16:52:43;5.42;;;2.85;;
73850;SDS011;62190;51.548;5.688;2022-09-13T16:55:10;3.55;;;2.92;;
73850;SDS011;62190;51.548;5.688;2022-09-13T16:57:37;5.60;;;3.08;;
73850;SDS011;62190;51.548;5.688;2022-09-13T17:00:05;5.10;;;3.87;;
73850;SDS011;62190;51.548;5.688;2022-09-13T17:02:35;5.33;;;3.33;;
73850;SDS011;62190;51.548;5.688;2022-09-13T17:05:03;3.52;;;2.80;;
73850;SDS011;62190;51.548;5.688;2022-09-13T17:07:33;5.80;;;2.70;;
73850;SDS011;62190;51.548;5.688;2022-09-13T17:10:03;3.67;;;2.62;;
73850;SDS011;62190;51.548;5.688;2022-09-13T17:12:31;6.33;;;3.02;;
73850;SDS011;62190;51.548;5.688;2022-09-13T17:14:59;5.22;;;3.02;;
73850;SDS011;62190;51.548;5.688;2022-09-13T17:17:26;5.97;;;3.12;;
73850;SDS011;62190;51.548;5.688;2022-09-13T17:19:57;7.30;;;2.77;;
73850;SDS011;62190;51.548;5.688;2022-09-13T17:22:25;6.50;;;2.08;;
73850;SDS011;62190;51.548;5.688;2022-09-13T17:24:52;4.85;;;3.02;;
73850;SDS011;62190;51.548;5.688;2022-09-13T17:27:19;5.10;;;2.85;;
73850;SDS011;62190;51.548;5.688;2022-09-13T17:29:50;4.47;;;2.60;;
73850;SDS011;62190;51.548;5.688;2022-09-13T17:32:18;6.45;;;2.27;;
73850;SDS011;62190;51.548;5.688;2022-09-13T17:34:49;5.15;;;2.52;;
73850;SDS011;62190;51.548;5.688;2022-09-13T17:37:16;4.08;;;2.40;;
73850;SDS011;62190;51.548;5.688;2022-09-13T17:39:45;3.92;;;2.33;;
73850;SDS011;62190;51.548;5.688;2022-09-13T17:42:15;10.53;;;2.80;;
73850;SDS011;62190;51.548;5.688;2022-09-13T17:44:43;6.03;;;2.27;;
73850;SDS011;62190;51.548;5.688;2022-09-13T17:47:12;5.05;;;2.45;;
73850;SDS011;62190;51.548;5.688;2022-09-13T17:49:40;7.03;;;2.67;;
73850;SDS011;62190;51.548;5.688;2022-09-13T17:52:11;5.40;;;2.60;;
73850;SDS011;62190;51.548;5.688;2022-09-13T17:54:41;6.70;;;2.95;;
73850;SDS011;62190;51.548;5.688;2022-09-13T17:57:08;7.05;;;2.33;;
73850;SDS011;62190;51.548;5.688;2022-09-13T17:59:37;7.08;;;2.92;;
73850;SDS011;62190;51.548;5.688;2022-09-13T18:02:07;4.95;;;2.87;;
73850;SDS011;62190;51.548;5.688;2022-09-13T18:04:34;4.67;;;2.62;;
73850;SDS011;62190;51.548;5.688;2022-09-13T18:07:01;6.05;;;2.83;;
73850;SDS011;62190;51.548;5.688;2022-09-13T18:09:32;9.35;;;3.33;;
73850;SDS011;62190;51.548;5.688;2022-09-13T18:12:00;5.53;;;2.72;;